sensor_id;sensor_type;location;lat;lon;timestamp;P1;durP1;ratioP1;P2;durP2;ratioP2
840;SDS011;406;48.566;13.450;2022-09-01T00:01:23;19.60;;;15.80;;
840;SDS011;406;48.566;13.450;2022-09-01T00:03:51;19.57;;;16.33;;
840;SDS011;406;48.566;13.450;2022-09-01T00:06:18;25.20;;;17.07;;
840;SDS011;406;48.566;13.450;2022-09-01T00:08:56;21.20;;;16.63;;
840;SDS011;406;48.566;13.450;2022-09-01T00:11:24;21.27;;;16.03;;
840;SDS011;406;48.566;13.450;2022-09-01T00:13:50;24.73;;;16.57;;
840;SDS011;406;48.566;13.450;2022-09-01T00:16:17;23.03;;;18.73;;
840;SDS011;406;48.566;13.450;2022-09-01T00:18:44;20.97;;;15.87;;
840;SDS011;406;48.566;13.450;2022-09-01T00:21:11;22.37;;;16.70;;
840;SDS011;406;48.566;13.450;2022-09-01T00:23:37;18.63;;;15.60;;
840;SDS011;406;48.566;13.450;2022-09-01T00:26:03;21.37;;;16.87;;
840;SDS011;406;48.566;13.450;2022-09-01T00:28:31;19.93;;;16.23;;
840;SDS011;406;48.566;13.450;2022-09-01T00:30:57;22.00;;;15.93;;
840;SDS011;406;48.566;13.450;2022-09-01T00:33:23;19.27;;;14.10;;
840;SDS011;406;48.566;13.450;2022-09-01T00:35:48;16.97;;;14.73;;
840;SDS011;406;48.566;13.450;2022-09-01T00:38:13;20.50;;;15.77;;
840;SDS011;406;48.566;13.450;2022-09-01T00:40:39;17.80;;;14.03;;
840;SDS011;406;48.566;13.450;2022-09-01T00:43:10;25.37;;;16.13;;
840;SDS011;406;48.566;13.450;2022-09-01T00:45:43;18.70;;;15.97;;
840;SDS011;406;48.566;13.450;2022-09-01T00:48:09;18.53;;;14.77;;
840;SDS011;406;48.566;13.450;2022-09-01T00:50:35;19.47;;;15.33;;
840;SDS011;406;48.566;13.450;2022-09-01T00:53:02;20.93;;;14.30;;
840;SDS011;406;48.566;13.450;2022-09-01T00:55:30;19.67;;;14.67;;
840;SDS011;406;48.566;13.450;2022-09-01T00:57:57;18.93;;;14.10;;
840;SDS011;406;48.566;13.450;2022-09-01T01:00:25;19.37;;;15.20;;
840;SDS011;406;48.566;13.450;2022-09-01T01:02:52;20.50;;;17.00;;
840;SDS011;406;48.566;13.450;2022-09-01T01:05:23;18.87;;;15.37;;
840;SDS011;406;48.566;13.450;2022-09-01T01:07:52;17.77;;;15.63;;
840;SDS011;406;48.566;13.450;2022-09-01T01:10:19;18.90;;;16.43;;
840;SDS011;406;48.566;13.450;2022-09-01T01:12:47;24.43;;;16.83;;
840;SDS011;406;48.566;13.450;2022-09-01T01:15:16;22.93;;;16.30;;
840;SDS011;406;48.566;13.450;2022-09-01T01:17:41;18.17;;;14.20;;
840;SDS011;406;48.566;13.450;2022-09-01T01:20:07;19.60;;;16.20;;
840;SDS011;406;48.566;13.450;2022-09-01T01:25:43;25.33;;;16.30;;
840;SDS011;406;48.566;13.450;2022-09-01T01:28:14;19.33;;;16.43;;
840;SDS011;406;48.566;13.450;2022-09-01T01:30:46;15.57;;;13.13;;
840;SDS011;406;48.566;13.450;2022-09-01T01:33:23;22.93;;;16.97;;
840;SDS011;406;48.566;13.450;2022-09-01T01:35:51;20.77;;;17.20;;
840;SDS011;406;48.566;13.450;2022-09-01T01:38:20;24.50;;;15.10;;
840;SDS011;406;48.566;13.450;2022-09-01T01:40:47;19.17;;;15.23;;
840;SDS011;406;48.566;13.450;2022-09-01T01:43:13;17.33;;;15.37;;
840;SDS011;406;48.566;13.450;2022-09-01T01:45:45;17.23;;;13.97;;
840;SDS011;406;48.566;13.450;2022-09-01T01:48:13;19.73;;;16.60;;
840;SDS011;406;48.566;13.450;2022-09-01T01:50:40;21.90;;;17.10;;
840;SDS011;406;48.566;13.450;2022-09-01T01:53:07;21.20;;;16.83;;
840;SDS011;406;48.566;13.450;2022-09-01T01:55:34;22.83;;;15.73;;
840;SDS011;406;48.566;13.450;2022-09-01T01:57:59;22.70;;;16.00;;
840;SDS011;406;48.566;13.450;2022-09-01T02:00:26;19.10;;;15.77;;
840;SDS011;406;48.566;13.450;2022-09-01T02:02:54;20.83;;;15.27;;
840;SDS011;406;48.566;13.450;2022-09-01T02:05:24;24.00;;;16.10;;
840;SDS011;406;48.566;13.450;2022-09-01T02:07:53;35.23;;;17.73;;
840;SDS011;406;48.566;13.450;2022-09-01T02:10:23;20.33;;;14.87;;
840;SDS011;406;48.566;13.450;2022-09-01T02:12:49;20.97;;;14.73;;
840;SDS011;406;48.566;13.450;2022-09-01T02:15:17;16.30;;;14.57;;
840;SDS011;406;48.566;13.450;2022-09-01T02:17:43;20.20;;;14.47;;
840;SDS011;406;48.566;13.450;2022-09-01T02:20:11;15.70;;;13.93;;
840;SDS011;406;48.566;13.450;2022-09-01T02:22:40;16.87;;;15.10;;
840;SDS011;406;48.566;13.450;2022-09-01T02:25:08;16.07;;;13.93;;
840;SDS011;406;48.566;13.450;2022-09-01T02:27:35;17.27;;;13.77;;
840;SDS011;406;48.566;13.450;2022-09-01T02:30:04;18.83;;;14.90;;
840;SDS011;406;48.566;13.450;2022-09-01T02:32:36;18.90;;;13.37;;
840;SDS011;406;48.566;13.450;2022-09-01T02:35:02;15.00;;;13.27;;
840;SDS011;406;48.566;13.450;2022-09-01T02:37:32;15.87;;;12.87;;
840;SDS011;406;48.566;13.450;2022-09-01T02:39:58;18.30;;;13.10;;
840;SDS011;406;48.566;13.450;2022-09-01T02:42:23;26.80;;;13.50;;
840;SDS011;406;48.566;13.450;2022-09-01T02:44:55;14.47;;;12.87;;
840;SDS011;406;48.566;13.450;2022-09-01T02:47:21;17.10;;;14.57;;
840;SDS011;406;48.566;13.450;2022-09-01T02:49:49;15.60;;;13.50;;
840;SDS011;406;48.566;13.450;2022-09-01T02:52:15;19.10;;;12.73;;
840;SDS011;406;48.566;13.450;2022-09-01T02:54:42;12.70;;;10.37;;
840;SDS011;406;48.566;13.450;2022-09-01T02:57:09;20.00;;;13.40;;
840;SDS011;406;48.566;13.450;2022-09-01T02:59:35;13.07;;;11.67;;
840;SDS011;406;48.566;13.450;2022-09-01T03:02:01;15.27;;;13.03;;
840;SDS011;406;48.566;13.450;2022-09-01T03:04:27;16.50;;;13.10;;
840;SDS011;406;48.566;13.450;2022-09-01T03:06:54;15.37;;;12.73;;
840;SDS011;406;48.566;13.450;2022-09-01T03:09:22;17.43;;;12.77;;
840;SDS011;406;48.566;13.450;2022-09-01T03:11:49;17.33;;;12.43;;
840;SDS011;406;48.566;13.450;2022-09-01T03:14:16;15.27;;;13.33;;
840;SDS011;406;48.566;13.450;2022-09-01T03:16:42;16.10;;;13.27;;
840;SDS011;406;48.566;13.450;2022-09-01T03:19:08;18.17;;;14.23;;
840;SDS011;406;48.566;13.450;2022-09-01T03:21:36;17.27;;;13.97;;
840;SDS011;406;48.566;13.450;2022-09-01T03:24:05;21.00;;;16.07;;
840;SDS011;406;48.566;13.450;2022-09-01T03:26:33;23.97;;;17.00;;
840;SDS011;406;48.566;13.450;2022-09-01T03:28:59;20.90;;;16.67;;
840;SDS011;406;48.566;13.450;2022-09-01T03:31:26;22.20;;;17.83;;
840;SDS011;406;48.566;13.450;2022-09-01T03:33:56;22.90;;;16.80;;
840;SDS011;406;48.566;13.450;2022-09-01T03:36:27;21.73;;;17.60;;
840;SDS011;406;48.566;13.450;2022-09-01T03:38:54;20.20;;;17.70;;
840;SDS011;406;48.566;13.450;2022-09-01T03:41:21;19.83;;;16.30;;
840;SDS011;406;48.566;13.450;2022-09-01T03:43:50;26.07;;;18.43;;
840;SDS011;406;48.566;13.450;2022-09-01T03:46:19;66.10;;;22.57;;
840;SDS011;406;48.566;13.450;2022-09-01T03:48:50;25.53;;;17.90;;
840;SDS011;406;48.566;13.450;2022-09-01T03:51:23;25.37;;;17.60;;
840;SDS011;406;48.566;13.450;2022-09-01T03:53:49;65.53;;;21.37;;
840;SDS011;406;48.566;13.450;2022-09-01T03:56:18;37.43;;;17.60;;
840;SDS011;406;48.566;13.450;2022-09-01T03:58:44;28.33;;;17.97;;
840;SDS011;406;48.566;13.450;2022-09-01T04:01:12;20.60;;;16.67;;
840;SDS011;406;48.566;13.450;2022-09-01T04:03:38;21.27;;;15.87;;
840;SDS011;406;48.566;13.450;2022-09-01T04:06:07;19.17;;;15.00;;
840;SDS011;406;48.566;13.450;2022-09-01T04:08:34;20.90;;;15.03;;
840;SDS011;406;48.566;13.450;2022-09-01T04:11:02;20.67;;;15.40;;
840;SDS011;406;48.566;13.450;2022-09-01T04:13:35;22.93;;;16.50;;
840;SDS011;406;48.566;13.450;2022-09-01T04:16:02;18.27;;;16.37;;
840;SDS011;406;48.566;13.450;2022-09-01T04:18:35;19.30;;;15.17;;
840;SDS011;406;48.566;13.450;2022-09-01T04:21:02;15.30;;;13.50;;
840;SDS011;406;48.566;13.450;2022-09-01T04:23:28;24.10;;;15.70;;
840;SDS011;406;48.566;13.450;2022-09-01T04:25:57;17.60;;;14.50;;
840;SDS011;406;48.566;13.450;2022-09-01T04:28:36;18.30;;;15.50;;
840;SDS011;406;48.566;13.450;2022-09-01T04:31:04;16.30;;;14.60;;
840;SDS011;406;48.566;13.450;2022-09-01T04:33:35;17.10;;;13.93;;
840;SDS011;406;48.566;13.450;2022-09-01T04:36:05;15.80;;;14.13;;
840;SDS011;406;48.566;13.450;2022-09-01T04:38:38;16.97;;;15.20;;
840;SDS011;406;48.566;13.450;2022-09-01T04:41:04;16.70;;;14.70;;
840;SDS011;406;48.566;13.450;2022-09-01T04:43:31;17.07;;;14.13;;
840;SDS011;406;48.566;13.450;2022-09-01T04:45:58;16.07;;;14.03;;
840;SDS011;406;48.566;13.450;2022-09-01T04:48:24;20.47;;;14.73;;
840;SDS011;406;48.566;13.450;2022-09-01T04:50:50;16.47;;;14.70;;
840;SDS011;406;48.566;13.450;2022-09-01T04:53:24;17.37;;;13.57;;
840;SDS011;406;48.566;13.450;2022-09-01T04:55:50;14.67;;;12.93;;
840;SDS011;406;48.566;13.450;2022-09-01T04:58:19;15.60;;;13.90;;
840;SDS011;406;48.566;13.450;2022-09-01T05:00:46;17.13;;;12.90;;
840;SDS011;406;48.566;13.450;2022-09-01T05:03:16;21.77;;;15.43;;
840;SDS011;406;48.566;13.450;2022-09-01T05:06:14;20.63;;;14.53;;
840;SDS011;406;48.566;13.450;2022-09-01T05:08:46;17.97;;;15.20;;
840;SDS011;406;48.566;13.450;2022-09-01T05:11:25;17.30;;;15.47;;
840;SDS011;406;48.566;13.450;2022-09-01T05:14:00;18.53;;;15.50;;
840;SDS011;406;48.566;13.450;2022-09-01T05:16:27;18.13;;;15.17;;
840;SDS011;406;48.566;13.450;2022-09-01T05:18:54;16.70;;;14.90;;
840;SDS011;406;48.566;13.450;2022-09-01T05:21:21;19.23;;;13.87;;
840;SDS011;406;48.566;13.450;2022-09-01T05:23:52;18.27;;;14.70;;
840;SDS011;406;48.566;13.450;2022-09-01T05:26:24;19.00;;;14.33;;
840;SDS011;406;48.566;13.450;2022-09-01T05:28:53;18.10;;;16.20;;
840;SDS011;406;48.566;13.450;2022-09-01T05:31:22;17.37;;;15.47;;
840;SDS011;406;48.566;13.450;2022-09-01T05:33:49;15.43;;;13.87;;
840;SDS011;406;48.566;13.450;2022-09-01T05:36:18;14.10;;;12.80;;
840;SDS011;406;48.566;13.450;2022-09-01T05:38:46;14.03;;;12.63;;
840;SDS011;406;48.566;13.450;2022-09-01T05:41:13;13.40;;;11.50;;
840;SDS011;406;48.566;13.450;2022-09-01T05:43:40;15.13;;;11.53;;
840;SDS011;406;48.566;13.450;2022-09-01T05:46:11;14.17;;;12.10;;
840;SDS011;406;48.566;13.450;2022-09-01T05:48:40;13.10;;;11.90;;
840;SDS011;406;48.566;13.450;2022-09-01T05:51:07;11.63;;;10.40;;
840;SDS011;406;48.566;13.450;2022-09-01T05:53:34;14.23;;;12.73;;
840;SDS011;406;48.566;13.450;2022-09-01T05:56:00;12.93;;;11.67;;
840;SDS011;406;48.566;13.450;2022-09-01T05:58:31;12.87;;;10.20;;
840;SDS011;406;48.566;13.450;2022-09-01T06:00:57;11.23;;;10.13;;
840;SDS011;406;48.566;13.450;2022-09-01T06:03:23;11.03;;;10.03;;
840;SDS011;406;48.566;13.450;2022-09-01T06:05:54;11.30;;;9.83;;
840;SDS011;406;48.566;13.450;2022-09-01T06:08:23;10.10;;;9.07;;
840;SDS011;406;48.566;13.450;2022-09-01T06:10:50;11.40;;;10.00;;
840;SDS011;406;48.566;13.450;2022-09-01T06:13:16;11.53;;;10.43;;
840;SDS011;406;48.566;13.450;2022-09-01T06:15:49;11.40;;;10.30;;
840;SDS011;406;48.566;13.450;2022-09-01T06:18:18;11.67;;;10.00;;
840;SDS011;406;48.566;13.450;2022-09-01T06:20:52;10.40;;;9.30;;
840;SDS011;406;48.566;13.450;2022-09-01T06:23:17;10.93;;;9.83;;
840;SDS011;406;48.566;13.450;2022-09-01T06:25:44;11.93;;;10.73;;
840;SDS011;406;48.566;13.450;2022-09-01T06:28:12;10.80;;;9.70;;
840;SDS011;406;48.566;13.450;2022-09-01T06:30:39;11.03;;;10.03;;
840;SDS011;406;48.566;13.450;2022-09-01T06:33:07;12.80;;;10.20;;
840;SDS011;406;48.566;13.450;2022-09-01T06:35:35;11.60;;;9.87;;
840;SDS011;406;48.566;13.450;2022-09-01T06:38:01;14.40;;;10.53;;
840;SDS011;406;48.566;13.450;2022-09-01T06:40:37;11.50;;;10.40;;
840;SDS011;406;48.566;13.450;2022-09-01T06:43:05;12.07;;;10.33;;
840;SDS011;406;48.566;13.450;2022-09-01T06:45:41;14.83;;;9.30;;
840;SDS011;406;48.566;13.450;2022-09-01T06:48:08;11.50;;;10.40;;
840;SDS011;406;48.566;13.450;2022-09-01T06:50:41;14.77;;;9.93;;
840;SDS011;406;48.566;13.450;2022-09-01T06:53:07;11.40;;;9.57;;
840;SDS011;406;48.566;13.450;2022-09-01T06:55:39;9.90;;;9.00;;
840;SDS011;406;48.566;13.450;2022-09-01T06:58:06;9.70;;;8.70;;
840;SDS011;406;48.566;13.450;2022-09-01T07:00:35;10.77;;;9.67;;
840;SDS011;406;48.566;13.450;2022-09-01T07:03:09;11.17;;;10.00;;
840;SDS011;406;48.566;13.450;2022-09-01T07:05:56;9.10;;;8.30;;
840;SDS011;406;48.566;13.450;2022-09-01T07:08:42;11.03;;;9.93;;
840;SDS011;406;48.566;13.450;2022-09-01T07:11:24;12.10;;;9.20;;
840;SDS011;406;48.566;13.450;2022-09-01T07:13:53;8.90;;;8.10;;
840;SDS011;406;48.566;13.450;2022-09-01T07:16:22;8.47;;;7.67;;
840;SDS011;406;48.566;13.450;2022-09-01T07:18:51;8.83;;;7.93;;
840;SDS011;406;48.566;13.450;2022-09-01T07:21:21;8.83;;;8.13;;
840;SDS011;406;48.566;13.450;2022-09-01T07:23:47;7.93;;;7.23;;
840;SDS011;406;48.566;13.450;2022-09-01T07:26:13;8.23;;;7.37;;
840;SDS011;406;48.566;13.450;2022-09-01T07:28:43;7.67;;;6.93;;
840;SDS011;406;48.566;13.450;2022-09-01T07:31:19;9.10;;;6.20;;
840;SDS011;406;48.566;13.450;2022-09-01T07:33:54;7.33;;;6.67;;
840;SDS011;406;48.566;13.450;2022-09-01T07:36:24;6.63;;;6.03;;
840;SDS011;406;48.566;13.450;2022-09-01T07:38:50;7.80;;;7.10;;
840;SDS011;406;48.566;13.450;2022-09-01T07:41:19;6.87;;;6.17;;
840;SDS011;406;48.566;13.450;2022-09-01T07:43:48;7.83;;;6.03;;
840;SDS011;406;48.566;13.450;2022-09-01T07:46:52;5.80;;;5.30;;
840;SDS011;406;48.566;13.450;2022-09-01T07:49:18;6.43;;;5.37;;
840;SDS011;406;48.566;13.450;2022-09-01T07:51:45;7.00;;;5.43;;
840;SDS011;406;48.566;13.450;2022-09-01T07:54:17;4.73;;;4.33;;
840;SDS011;406;48.566;13.450;2022-09-01T07:56:42;4.80;;;4.40;;
840;SDS011;406;48.566;13.450;2022-09-01T07:59:09;4.57;;;4.17;;
840;SDS011;406;48.566;13.450;2022-09-01T08:01:40;5.13;;;4.60;;
840;SDS011;406;48.566;13.450;2022-09-01T08:04:07;5.73;;;4.37;;
840;SDS011;406;48.566;13.450;2022-09-01T08:06:33;4.97;;;4.37;;
840;SDS011;406;48.566;13.450;2022-09-01T08:09:00;4.80;;;4.40;;
840;SDS011;406;48.566;13.450;2022-09-01T08:11:29;5.03;;;4.30;;
840;SDS011;406;48.566;13.450;2022-09-01T08:13:55;4.20;;;3.80;;
840;SDS011;406;48.566;13.450;2022-09-01T08:16:26;3.77;;;3.37;;
840;SDS011;406;48.566;13.450;2022-09-01T08:18:54;4.23;;;3.67;;
840;SDS011;406;48.566;13.450;2022-09-01T08:21:26;3.73;;;3.33;;
840;SDS011;406;48.566;13.450;2022-09-01T08:23:58;5.10;;;3.97;;
840;SDS011;406;48.566;13.450;2022-09-01T08:26:24;4.30;;;3.30;;
840;SDS011;406;48.566;13.450;2022-09-01T08:28:51;3.53;;;3.23;;
840;SDS011;406;48.566;13.450;2022-09-01T08:31:18;4.27;;;3.47;;
840;SDS011;406;48.566;13.450;2022-09-01T08:33:46;5.10;;;3.87;;
840;SDS011;406;48.566;13.450;2022-09-01T08:36:14;3.77;;;3.47;;
840;SDS011;406;48.566;13.450;2022-09-01T08:38:40;6.57;;;4.10;;
840;SDS011;406;48.566;13.450;2022-09-01T08:41:12;4.93;;;4.10;;
840;SDS011;406;48.566;13.450;2022-09-01T08:43:49;7.00;;;3.43;;
840;SDS011;406;48.566;13.450;2022-09-01T08:48:55;5.93;;;3.33;;
840;SDS011;406;48.566;13.450;2022-09-01T08:51:28;4.60;;;3.67;;
840;SDS011;406;48.566;13.450;2022-09-01T08:56:50;3.17;;;2.60;;
840;SDS011;406;48.566;13.450;2022-09-01T08:59:20;4.10;;;3.20;;
840;SDS011;406;48.566;13.450;2022-09-01T09:21:56;6.03;;;2.60;;
840;SDS011;406;48.566;13.450;2022-09-01T09:24:25;3.13;;;2.80;;
840;SDS011;406;48.566;13.450;2022-09-01T09:27:21;2.90;;;2.40;;
840;SDS011;406;48.566;13.450;2022-09-01T09:29:55;4.00;;;2.63;;
840;SDS011;406;48.566;13.450;2022-09-01T09:32:23;3.30;;;3.00;;
840;SDS011;406;48.566;13.450;2022-09-01T09:34:50;2.50;;;2.30;;
840;SDS011;406;48.566;13.450;2022-09-01T09:37:20;2.47;;;2.27;;
840;SDS011;406;48.566;13.450;2022-09-01T09:40:11;2.73;;;2.50;;
840;SDS011;406;48.566;13.450;2022-09-01T09:43:04;4.60;;;2.53;;
840;SDS011;406;48.566;13.450;2022-09-01T09:47:58;2.93;;;2.57;;
840;SDS011;406;48.566;13.450;2022-09-01T09:53:10;2.30;;;2.10;;
840;SDS011;406;48.566;13.450;2022-09-01T09:55:48;3.97;;;2.37;;
840;SDS011;406;48.566;13.450;2022-09-01T09:58:22;3.20;;;2.57;;
840;SDS011;406;48.566;13.450;2022-09-01T10:03:51;2.00;;;1.80;;
840;SDS011;406;48.566;13.450;2022-09-01T10:09:04;4.17;;;2.80;;
840;SDS011;406;48.566;13.450;2022-09-01T10:14:13;2.73;;;2.50;;
840;SDS011;406;48.566;13.450;2022-09-01T10:16:41;2.60;;;2.40;;
840;SDS011;406;48.566;13.450;2022-09-01T10:19:11;2.80;;;2.60;;
840;SDS011;406;48.566;13.450;2022-09-01T10:21:38;3.97;;;2.73;;
840;SDS011;406;48.566;13.450;2022-09-01T10:24:47;3.63;;;3.30;;
840;SDS011;406;48.566;13.450;2022-09-01T10:26:56;3.50;;;3.20;;
840;SDS011;406;48.566;13.450;2022-09-01T10:29:25;2.80;;;2.60;;
840;SDS011;406;48.566;13.450;2022-09-01T10:31:54;3.00;;;2.43;;
840;SDS011;406;48.566;13.450;2022-09-01T10:34:20;2.87;;;2.67;;
840;SDS011;406;48.566;13.450;2022-09-01T10:36:47;5.33;;;2.90;;
840;SDS011;406;48.566;13.450;2022-09-01T10:39:14;2.80;;;2.60;;
840;SDS011;406;48.566;13.450;2022-09-01T10:44:07;4.63;;;2.70;;
840;SDS011;406;48.566;13.450;2022-09-01T10:49:00;4.93;;;4.13;;
840;SDS011;406;48.566;13.450;2022-09-01T10:53:51;4.90;;;3.47;;
840;SDS011;406;48.566;13.450;2022-09-01T10:59:08;3.30;;;3.00;;
840;SDS011;406;48.566;13.450;2022-09-01T11:04:16;4.23;;;3.17;;
840;SDS011;406;48.566;13.450;2022-09-01T11:11:50;3.50;;;2.63;;
840;SDS011;406;48.566;13.450;2022-09-01T11:14:48;3.53;;;3.10;;
840;SDS011;406;48.566;13.450;2022-09-01T11:17:37;3.27;;;3.00;;
840;SDS011;406;48.566;13.450;2022-09-01T11:20:20;3.63;;;2.47;;
840;SDS011;406;48.566;13.450;2022-09-01T11:33:49;3.10;;;2.53;;
840;SDS011;406;48.566;13.450;2022-09-01T11:38:57;3.90;;;2.90;;
840;SDS011;406;48.566;13.450;2022-09-01T11:44:49;5.73;;;2.70;;
840;SDS011;406;48.566;13.450;2022-09-01T11:47:19;6.53;;;2.87;;
840;SDS011;406;48.566;13.450;2022-09-01T11:49:48;2.20;;;2.00;;
840;SDS011;406;48.566;13.450;2022-09-01T11:52:17;2.60;;;2.20;;
840;SDS011;406;48.566;13.450;2022-09-01T11:54:44;5.23;;;2.60;;
840;SDS011;406;48.566;13.450;2022-09-01T11:57:45;2.40;;;2.10;;
840;SDS011;406;48.566;13.450;2022-09-01T12:00:06;3.73;;;2.70;;
840;SDS011;406;48.566;13.450;2022-09-01T12:02:45;2.47;;;2.27;;
840;SDS011;406;48.566;13.450;2022-09-01T12:05:29;2.67;;;2.47;;
840;SDS011;406;48.566;13.450;2022-09-01T12:07:57;3.23;;;2.73;;
840;SDS011;406;48.566;13.450;2022-09-01T12:15:33;2.90;;;2.13;;
840;SDS011;406;48.566;13.450;2022-09-01T12:18:35;2.23;;;2.00;;
840;SDS011;406;48.566;13.450;2022-09-01T12:21:15;2.80;;;2.10;;
840;SDS011;406;48.566;13.450;2022-09-01T12:23:44;3.70;;;2.70;;
840;SDS011;406;48.566;13.450;2022-09-01T12:26:13;2.60;;;2.40;;
840;SDS011;406;48.566;13.450;2022-09-01T12:28:40;2.67;;;2.47;;
840;SDS011;406;48.566;13.450;2022-09-01T12:31:11;3.40;;;2.80;;
840;SDS011;406;48.566;13.450;2022-09-01T12:33:43;2.77;;;2.40;;
840;SDS011;406;48.566;13.450;2022-09-01T12:36:12;2.47;;;2.27;;
840;SDS011;406;48.566;13.450;2022-09-01T12:38:38;2.40;;;2.20;;
840;SDS011;406;48.566;13.450;2022-09-01T12:41:15;2.63;;;2.40;;
840;SDS011;406;48.566;13.450;2022-09-01T12:43:47;3.00;;;2.33;;
840;SDS011;406;48.566;13.450;2022-09-01T12:46:38;2.53;;;2.27;;
840;SDS011;406;48.566;13.450;2022-09-01T12:49:17;2.60;;;2.40;;
840;SDS011;406;48.566;13.450;2022-09-01T12:51:44;2.70;;;2.50;;
840;SDS011;406;48.566;13.450;2022-09-01T12:54:12;4.60;;;2.43;;
840;SDS011;406;48.566;13.450;2022-09-01T12:56:37;2.60;;;1.80;;
840;SDS011;406;48.566;13.450;2022-09-01T13:01:39;2.07;;;1.87;;
840;SDS011;406;48.566;13.450;2022-09-01T13:04:06;2.70;;;2.20;;
840;SDS011;406;48.566;13.450;2022-09-01T13:06:38;2.50;;;2.30;;
840;SDS011;406;48.566;13.450;2022-09-01T13:09:04;3.73;;;2.57;;
840;SDS011;406;48.566;13.450;2022-09-01T13:11:29;2.60;;;2.17;;
840;SDS011;406;48.566;13.450;2022-09-01T13:13:55;5.70;;;2.03;;
840;SDS011;406;48.566;13.450;2022-09-01T13:16:21;2.77;;;2.57;;
840;SDS011;406;48.566;13.450;2022-09-01T13:18:46;2.47;;;1.63;;
840;SDS011;406;48.566;13.450;2022-09-01T13:21:12;2.40;;;2.10;;
840;SDS011;406;48.566;13.450;2022-09-01T13:23:38;6.07;;;2.30;;
840;SDS011;406;48.566;13.450;2022-09-01T13:26:04;2.60;;;2.40;;
840;SDS011;406;48.566;13.450;2022-09-01T13:28:30;3.13;;;2.00;;
840;SDS011;406;48.566;13.450;2022-09-01T13:30:57;1.73;;;1.50;;
840;SDS011;406;48.566;13.450;2022-09-01T13:33:24;2.80;;;2.60;;
840;SDS011;406;48.566;13.450;2022-09-01T13:35:51;2.53;;;1.80;;
840;SDS011;406;48.566;13.450;2022-09-01T13:38:17;3.00;;;2.33;;
840;SDS011;406;48.566;13.450;2022-09-01T13:40:43;1.93;;;1.73;;
840;SDS011;406;48.566;13.450;2022-09-01T13:43:11;2.97;;;2.07;;
840;SDS011;406;48.566;13.450;2022-09-01T13:45:40;2.80;;;2.13;;
840;SDS011;406;48.566;13.450;2022-09-01T13:48:06;2.00;;;1.80;;
840;SDS011;406;48.566;13.450;2022-09-01T13:50:32;2.33;;;1.80;;
840;SDS011;406;48.566;13.450;2022-09-01T13:52:58;2.07;;;1.87;;
840;SDS011;406;48.566;13.450;2022-09-01T13:55:24;2.03;;;1.80;;
840;SDS011;406;48.566;13.450;2022-09-01T13:57:53;2.73;;;2.10;;
840;SDS011;406;48.566;13.450;2022-09-01T14:00:20;2.17;;;1.93;;
840;SDS011;406;48.566;13.450;2022-09-01T14:02:51;3.37;;;2.03;;
840;SDS011;406;48.566;13.450;2022-09-01T14:05:19;2.07;;;1.87;;
840;SDS011;406;48.566;13.450;2022-09-01T14:07:46;2.03;;;1.83;;
840;SDS011;406;48.566;13.450;2022-09-01T14:10:13;4.10;;;2.40;;
840;SDS011;406;48.566;13.450;2022-09-01T14:12:39;2.80;;;2.07;;
840;SDS011;406;48.566;13.450;2022-09-01T14:15:06;2.23;;;1.93;;
840;SDS011;406;48.566;13.450;2022-09-01T14:17:33;1.73;;;1.63;;
840;SDS011;406;48.566;13.450;2022-09-01T14:20:00;3.30;;;1.80;;
840;SDS011;406;48.566;13.450;2022-09-01T14:22:26;1.63;;;1.53;;
840;SDS011;406;48.566;13.450;2022-09-01T14:24:52;2.53;;;1.97;;
840;SDS011;406;48.566;13.450;2022-09-01T14:27:17;2.27;;;1.87;;
840;SDS011;406;48.566;13.450;2022-09-01T14:29:47;2.40;;;2.00;;
840;SDS011;406;48.566;13.450;2022-09-01T14:32:14;1.60;;;1.50;;
840;SDS011;406;48.566;13.450;2022-09-01T14:34:41;4.57;;;1.77;;
840;SDS011;406;48.566;13.450;2022-09-01T14:37:07;2.10;;;1.93;;
840;SDS011;406;48.566;13.450;2022-09-01T14:39:33;1.83;;;1.63;;
840;SDS011;406;48.566;13.450;2022-09-01T14:41:58;1.73;;;1.43;;
840;SDS011;406;48.566;13.450;2022-09-01T14:44:24;1.80;;;1.70;;
840;SDS011;406;48.566;13.450;2022-09-01T14:46:49;2.07;;;1.43;;
840;SDS011;406;48.566;13.450;2022-09-01T14:49:14;3.27;;;1.73;;
840;SDS011;406;48.566;13.450;2022-09-01T14:51:41;2.13;;;1.90;;
840;SDS011;406;48.566;13.450;2022-09-01T14:54:06;3.70;;;1.50;;
840;SDS011;406;48.566;13.450;2022-09-01T14:56:32;1.90;;;1.73;;
840;SDS011;406;48.566;13.450;2022-09-01T14:58:57;2.30;;;1.53;;
840;SDS011;406;48.566;13.450;2022-09-01T15:01:25;1.73;;;1.47;;
840;SDS011;406;48.566;13.450;2022-09-01T15:03:51;2.70;;;1.80;;
840;SDS011;406;48.566;13.450;2022-09-01T15:06:18;1.50;;;1.40;;
840;SDS011;406;48.566;13.450;2022-09-01T15:08:45;3.10;;;1.33;;
840;SDS011;406;48.566;13.450;2022-09-01T15:11:12;4.57;;;1.43;;
840;SDS011;406;48.566;13.450;2022-09-01T15:13:39;1.50;;;1.40;;
840;SDS011;406;48.566;13.450;2022-09-01T15:16:11;2.20;;;1.30;;
840;SDS011;406;48.566;13.450;2022-09-01T15:18:41;1.90;;;1.40;;
840;SDS011;406;48.566;13.450;2022-09-01T15:21:06;2.10;;;1.40;;
840;SDS011;406;48.566;13.450;2022-09-01T15:23:33;1.77;;;1.67;;
840;SDS011;406;48.566;13.450;2022-09-01T15:25:59;1.93;;;1.70;;
840;SDS011;406;48.566;13.450;2022-09-01T15:28:25;2.57;;;1.40;;
840;SDS011;406;48.566;13.450;2022-09-01T15:30:51;1.30;;;1.13;;
840;SDS011;406;48.566;13.450;2022-09-01T15:33:18;1.90;;;1.30;;
840;SDS011;406;48.566;13.450;2022-09-01T15:35:44;1.70;;;1.60;;
840;SDS011;406;48.566;13.450;2022-09-01T15:38:10;2.83;;;1.40;;
840;SDS011;406;48.566;13.450;2022-09-01T15:40:38;1.80;;;1.43;;
840;SDS011;406;48.566;13.450;2022-09-01T15:43:05;1.90;;;1.50;;
840;SDS011;406;48.566;13.450;2022-09-01T15:45:31;1.57;;;1.40;;
840;SDS011;406;48.566;13.450;2022-09-01T15:47:56;1.43;;;1.33;;
840;SDS011;406;48.566;13.450;2022-09-01T15:50:22;1.53;;;1.40;;
840;SDS011;406;48.566;13.450;2022-09-01T15:52:53;1.57;;;1.20;;
840;SDS011;406;48.566;13.450;2022-09-01T15:55:25;1.80;;;1.67;;
840;SDS011;406;48.566;13.450;2022-09-01T15:57:52;4.20;;;1.90;;
840;SDS011;406;48.566;13.450;2022-09-01T16:00:19;2.23;;;1.70;;
840;SDS011;406;48.566;13.450;2022-09-01T16:02:45;1.67;;;1.37;;
840;SDS011;406;48.566;13.450;2022-09-01T16:05:11;1.50;;;1.30;;
840;SDS011;406;48.566;13.450;2022-09-01T16:07:37;1.43;;;1.33;;
840;SDS011;406;48.566;13.450;2022-09-01T16:10:03;1.60;;;1.47;;
840;SDS011;406;48.566;13.450;2022-09-01T16:12:30;1.83;;;1.63;;
840;SDS011;406;48.566;13.450;2022-09-01T16:14:56;1.57;;;1.47;;
840;SDS011;406;48.566;13.450;2022-09-01T16:17:31;5.30;;;1.87;;
840;SDS011;406;48.566;13.450;2022-09-01T16:20:12;3.40;;;1.70;;
840;SDS011;406;48.566;13.450;2022-09-01T16:22:43;3.90;;;1.93;;
840;SDS011;406;48.566;13.450;2022-09-01T16:25:16;2.20;;;1.40;;
840;SDS011;406;48.566;13.450;2022-09-01T16:27:46;1.60;;;1.40;;
840;SDS011;406;48.566;13.450;2022-09-01T16:30:13;1.77;;;1.60;;
840;SDS011;406;48.566;13.450;2022-09-01T16:32:44;2.63;;;2.20;;
840;SDS011;406;48.566;13.450;2022-09-01T16:35:11;1.87;;;1.77;;
840;SDS011;406;48.566;13.450;2022-09-01T16:40:42;2.90;;;1.70;;
840;SDS011;406;48.566;13.450;2022-09-01T16:43:26;1.97;;;1.77;;
840;SDS011;406;48.566;13.450;2022-09-01T16:46:11;2.87;;;2.13;;
840;SDS011;406;48.566;13.450;2022-09-01T16:57:11;3.53;;;2.33;;
840;SDS011;406;48.566;13.450;2022-09-01T16:59:51;2.13;;;2.03;;
840;SDS011;406;48.566;13.450;2022-09-01T17:05:18;2.97;;;2.57;;
840;SDS011;406;48.566;13.450;2022-09-01T17:07:50;2.47;;;2.13;;
840;SDS011;406;48.566;13.450;2022-09-01T17:10:39;2.20;;;1.97;;